sensor_id;sensor_type;location;lat;lon;timestamp;P1;durP1;ratioP1;P2;durP2;ratioP2
22320;SDS011;11328;53.928;18.522;2023-11-21T00:01:16;21.73;;;12.05;;
22320;SDS011;11328;53.928;18.522;2023-11-21T00:03:44;21.55;;;12.40;;
22320;SDS011;11328;53.928;18.522;2023-11-21T00:06:11;24.50;;;13.35;;
22320;SDS011;11328;53.928;18.522;2023-11-21T00:08:38;22.25;;;12.77;;
22320;SDS011;11328;53.928;18.522;2023-11-21T00:11:05;23.02;;;13.23;;
22320;SDS011;11328;53.928;18.522;2023-11-21T00:13:32;25.38;;;13.25;;
22320;SDS011;11328;53.928;18.522;2023-11-21T00:16:00;26.25;;;13.35;;
22320;SDS011;11328;53.928;18.522;2023-11-21T00:18:27;24.45;;;13.32;;
22320;SDS011;11328;53.928;18.522;2023-11-21T00:20:54;24.73;;;13.57;;
22320;SDS011;11328;53.928;18.522;2023-11-21T00:23:21;26.00;;;13.38;;
22320;SDS011;11328;53.928;18.522;2023-11-21T00:25:48;26.75;;;14.15;;
22320;SDS011;11328;53.928;18.522;2023-11-21T00:28:15;29.63;;;14.40;;
22320;SDS011;11328;53.928;18.522;2023-11-21T00:30:42;27.20;;;14.07;;
22320;SDS011;11328;53.928;18.522;2023-11-21T00:33:09;28.88;;;13.93;;
22320;SDS011;11328;53.928;18.522;2023-11-21T00:35:37;24.58;;;13.75;;
22320;SDS011;11328;53.928;18.522;2023-11-21T00:38:04;25.70;;;13.85;;
22320;SDS011;11328;53.928;18.522;2023-11-21T00:40:31;24.60;;;13.23;;
22320;SDS011;11328;53.928;18.522;2023-11-21T00:42:58;27.55;;;13.95;;
22320;SDS011;11328;53.928;18.522;2023-11-21T00:45:26;24.52;;;12.95;;
22320;SDS011;11328;53.928;18.522;2023-11-21T00:47:53;24.83;;;13.30;;
22320;SDS011;11328;53.928;18.522;2023-11-21T00:50:21;23.20;;;13.43;;
22320;SDS011;11328;53.928;18.522;2023-11-21T00:52:48;26.23;;;13.10;;
22320;SDS011;11328;53.928;18.522;2023-11-21T00:55:17;24.08;;;13.32;;
22320;SDS011;11328;53.928;18.522;2023-11-21T00:57:44;27.00;;;12.93;;
22320;SDS011;11328;53.928;18.522;2023-11-21T01:00:12;24.73;;;13.55;;
22320;SDS011;11328;53.928;18.522;2023-11-21T01:02:43;27.95;;;12.65;;
22320;SDS011;11328;53.928;18.522;2023-11-21T01:05:11;26.48;;;12.60;;
22320;SDS011;11328;53.928;18.522;2023-11-21T01:07:38;24.05;;;12.52;;
22320;SDS011;11328;53.928;18.522;2023-11-21T01:10:05;24.02;;;11.55;;
22320;SDS011;11328;53.928;18.522;2023-11-21T01:12:35;21.45;;;11.57;;
22320;SDS011;11328;53.928;18.522;2023-11-21T01:15:04;21.52;;;12.15;;
22320;SDS011;11328;53.928;18.522;2023-11-21T01:17:38;24.33;;;11.55;;
22320;SDS011;11328;53.928;18.522;2023-11-21T01:20:06;21.80;;;11.68;;
22320;SDS011;11328;53.928;18.522;2023-11-21T01:22:38;21.00;;;11.13;;
22320;SDS011;11328;53.928;18.522;2023-11-21T01:25:06;20.92;;;11.18;;
22320;SDS011;11328;53.928;18.522;2023-11-21T01:27:34;21.83;;;11.60;;
22320;SDS011;11328;53.928;18.522;2023-11-21T01:30:01;19.55;;;11.02;;
22320;SDS011;11328;53.928;18.522;2023-11-21T01:32:30;22.13;;;10.80;;
22320;SDS011;11328;53.928;18.522;2023-11-21T01:34:58;21.92;;;10.35;;
22320;SDS011;11328;53.928;18.522;2023-11-21T01:37:26;20.88;;;10.52;;
22320;SDS011;11328;53.928;18.522;2023-11-21T01:39:54;19.33;;;9.80;;
22320;SDS011;11328;53.928;18.522;2023-11-21T01:42:22;19.27;;;10.52;;
22320;SDS011;11328;53.928;18.522;2023-11-21T01:44:49;21.15;;;10.90;;
22320;SDS011;11328;53.928;18.522;2023-11-21T01:47:16;19.65;;;10.27;;
22320;SDS011;11328;53.928;18.522;2023-11-21T01:49:44;18.55;;;10.60;;
22320;SDS011;11328;53.928;18.522;2023-11-21T01:52:13;20.27;;;10.85;;
22320;SDS011;11328;53.928;18.522;2023-11-21T01:54:41;21.95;;;10.50;;
22320;SDS011;11328;53.928;18.522;2023-11-21T01:57:08;17.75;;;9.88;;
22320;SDS011;11328;53.928;18.522;2023-11-21T01:59:37;20.90;;;10.38;;
22320;SDS011;11328;53.928;18.522;2023-11-21T02:02:08;20.85;;;10.20;;
22320;SDS011;11328;53.928;18.522;2023-11-21T02:04:36;21.17;;;10.25;;
22320;SDS011;11328;53.928;18.522;2023-11-21T02:07:04;17.70;;;9.57;;
22320;SDS011;11328;53.928;18.522;2023-11-21T02:09:34;16.95;;;9.70;;
22320;SDS011;11328;53.928;18.522;2023-11-21T02:12:04;17.55;;;10.15;;
22320;SDS011;11328;53.928;18.522;2023-11-21T02:14:32;17.48;;;9.57;;
22320;SDS011;11328;53.928;18.522;2023-11-21T02:16:59;18.13;;;9.38;;
22320;SDS011;11328;53.928;18.522;2023-11-21T02:19:27;16.83;;;9.50;;
22320;SDS011;11328;53.928;18.522;2023-11-21T02:21:57;16.08;;;8.65;;
22320;SDS011;11328;53.928;18.522;2023-11-21T02:24:27;16.52;;;9.40;;
22320;SDS011;11328;53.928;18.522;2023-11-21T02:26:54;15.63;;;8.50;;
22320;SDS011;11328;53.928;18.522;2023-11-21T02:29:21;17.15;;;9.00;;
22320;SDS011;11328;53.928;18.522;2023-11-21T02:31:50;17.63;;;9.55;;
22320;SDS011;11328;53.928;18.522;2023-11-21T02:34:21;11.80;;;6.45;;
22320;SDS011;11328;53.928;18.522;2023-11-21T02:36:51;16.02;;;8.82;;
22320;SDS011;11328;53.928;18.522;2023-11-21T02:39:20;16.13;;;9.00;;
22320;SDS011;11328;53.928;18.522;2023-11-21T02:41:48;15.50;;;8.95;;
22320;SDS011;11328;53.928;18.522;2023-11-21T02:44:16;15.07;;;8.48;;
22320;SDS011;11328;53.928;18.522;2023-11-21T02:46:43;14.75;;;8.32;;
22320;SDS011;11328;53.928;18.522;2023-11-21T02:49:10;14.77;;;8.48;;
22320;SDS011;11328;53.928;18.522;2023-11-21T02:51:38;15.30;;;8.60;;
22320;SDS011;11328;53.928;18.522;2023-11-21T02:54:05;16.10;;;8.73;;
22320;SDS011;11328;53.928;18.522;2023-11-21T02:56:34;15.65;;;8.52;;
22320;SDS011;11328;53.928;18.522;2023-11-21T02:59:01;14.55;;;7.85;;
22320;SDS011;11328;53.928;18.522;2023-11-21T03:01:28;14.90;;;8.02;;
22320;SDS011;11328;53.928;18.522;2023-11-21T03:03:56;14.70;;;7.90;;
22320;SDS011;11328;53.928;18.522;2023-11-21T03:06:23;16.00;;;7.95;;
22320;SDS011;11328;53.928;18.522;2023-11-21T03:08:50;13.43;;;7.75;;
22320;SDS011;11328;53.928;18.522;2023-11-21T03:11:17;14.20;;;8.07;;
22320;SDS011;11328;53.928;18.522;2023-11-21T03:13:44;14.70;;;7.93;;
22320;SDS011;11328;53.928;18.522;2023-11-21T03:16:12;15.02;;;8.10;;
22320;SDS011;11328;53.928;18.522;2023-11-21T03:18:40;16.00;;;8.13;;
22320;SDS011;11328;53.928;18.522;2023-11-21T03:21:07;14.23;;;7.63;;
22320;SDS011;11328;53.928;18.522;2023-11-21T03:23:35;16.88;;;7.75;;
22320;SDS011;11328;53.928;18.522;2023-11-21T03:26:03;16.42;;;7.82;;
22320;SDS011;11328;53.928;18.522;2023-11-21T03:28:30;14.50;;;7.07;;
22320;SDS011;11328;53.928;18.522;2023-11-21T03:30:57;18.05;;;7.55;;
22320;SDS011;11328;53.928;18.522;2023-11-21T03:33:24;12.85;;;6.95;;
22320;SDS011;11328;53.928;18.522;2023-11-21T03:35:52;13.43;;;7.57;;
22320;SDS011;11328;53.928;18.522;2023-11-21T03:38:19;14.30;;;7.60;;
22320;SDS011;11328;53.928;18.522;2023-11-21T03:40:46;18.33;;;8.63;;
22320;SDS011;11328;53.928;18.522;2023-11-21T03:43:14;14.02;;;7.40;;
22320;SDS011;11328;53.928;18.522;2023-11-21T03:45:41;13.75;;;7.13;;
22320;SDS011;11328;53.928;18.522;2023-11-21T03:48:08;16.25;;;8.30;;
22320;SDS011;11328;53.928;18.522;2023-11-21T03:50:38;14.55;;;7.30;;
22320;SDS011;11328;53.928;18.522;2023-11-21T03:53:05;16.23;;;7.05;;
22320;SDS011;11328;53.928;18.522;2023-11-21T03:55:32;13.80;;;7.45;;
22320;SDS011;11328;53.928;18.522;2023-11-21T03:57:59;14.25;;;7.53;;
22320;SDS011;11328;53.928;18.522;2023-11-21T04:00:27;14.40;;;6.65;;
22320;SDS011;11328;53.928;18.522;2023-11-21T04:02:54;12.43;;;6.43;;
22320;SDS011;11328;53.928;18.522;2023-11-21T04:05:22;12.88;;;6.78;;
22320;SDS011;11328;53.928;18.522;2023-11-21T04:07:50;11.82;;;6.70;;
22320;SDS011;11328;53.928;18.522;2023-11-21T04:10:18;11.63;;;6.40;;
22320;SDS011;11328;53.928;18.522;2023-11-21T04:12:45;12.43;;;6.80;;
22320;SDS011;11328;53.928;18.522;2023-11-21T04:15:12;13.15;;;6.88;;
22320;SDS011;11328;53.928;18.522;2023-11-21T04:17:40;13.70;;;7.03;;
22320;SDS011;11328;53.928;18.522;2023-11-21T04:20:09;12.63;;;6.75;;
22320;SDS011;11328;53.928;18.522;2023-11-21T04:22:40;12.85;;;6.38;;
22320;SDS011;11328;53.928;18.522;2023-11-21T04:25:11;12.70;;;6.88;;
22320;SDS011;11328;53.928;18.522;2023-11-21T04:27:42;14.30;;;7.78;;
22320;SDS011;11328;53.928;18.522;2023-11-21T04:30:10;14.82;;;7.18;;
22320;SDS011;11328;53.928;18.522;2023-11-21T04:32:39;11.68;;;6.60;;
22320;SDS011;11328;53.928;18.522;2023-11-21T04:35:08;13.55;;;6.63;;
22320;SDS011;11328;53.928;18.522;2023-11-21T04:37:36;12.43;;;6.72;;
22320;SDS011;11328;53.928;18.522;2023-11-21T04:40:03;12.43;;;6.50;;
22320;SDS011;11328;53.928;18.522;2023-11-21T04:42:36;12.27;;;6.90;;
22320;SDS011;11328;53.928;18.522;2023-11-21T04:45:06;11.80;;;6.20;;
22320;SDS011;11328;53.928;18.522;2023-11-21T04:47:35;13.23;;;6.50;;
22320;SDS011;11328;53.928;18.522;2023-11-21T04:50:03;13.98;;;6.90;;
22320;SDS011;11328;53.928;18.522;2023-11-21T04:52:32;11.65;;;6.22;;
22320;SDS011;11328;53.928;18.522;2023-11-21T04:54:59;13.52;;;6.18;;
22320;SDS011;11328;53.928;18.522;2023-11-21T04:57:28;13.52;;;6.47;;
22320;SDS011;11328;53.928;18.522;2023-11-21T04:59:55;14.15;;;6.35;;
22320;SDS011;11328;53.928;18.522;2023-11-21T05:02:22;12.32;;;6.10;;
22320;SDS011;11328;53.928;18.522;2023-11-21T05:05:01;13.32;;;6.07;;
22320;SDS011;11328;53.928;18.522;2023-11-21T05:07:29;11.18;;;6.00;;
22320;SDS011;11328;53.928;18.522;2023-11-21T05:09:58;12.52;;;5.90;;
22320;SDS011;11328;53.928;18.522;2023-11-21T05:12:25;14.40;;;6.30;;
22320;SDS011;11328;53.928;18.522;2023-11-21T05:14:52;11.93;;;5.32;;
22320;SDS011;11328;53.928;18.522;2023-11-21T05:17:19;12.70;;;5.93;;
22320;SDS011;11328;53.928;18.522;2023-11-21T05:19:46;10.93;;;5.60;;
22320;SDS011;11328;53.928;18.522;2023-11-21T05:22:15;10.95;;;6.10;;
22320;SDS011;11328;53.928;18.522;2023-11-21T05:24:42;10.88;;;5.60;;
22320;SDS011;11328;53.928;18.522;2023-11-21T05:27:09;12.98;;;6.13;;
22320;SDS011;11328;53.928;18.522;2023-11-21T05:29:37;12.60;;;6.25;;
22320;SDS011;11328;53.928;18.522;2023-11-21T05:32:04;12.02;;;6.45;;
22320;SDS011;11328;53.928;18.522;2023-11-21T05:34:31;11.45;;;6.18;;
22320;SDS011;11328;53.928;18.522;2023-11-21T05:36:58;10.88;;;5.55;;
22320;SDS011;11328;53.928;18.522;2023-11-21T05:39:26;13.18;;;5.85;;
22320;SDS011;11328;53.928;18.522;2023-11-21T05:41:54;13.00;;;6.47;;
22320;SDS011;11328;53.928;18.522;2023-11-21T05:44:21;11.80;;;6.50;;
22320;SDS011;11328;53.928;18.522;2023-11-21T05:46:50;12.27;;;6.20;;
22320;SDS011;11328;53.928;18.522;2023-11-21T05:49:17;12.35;;;6.13;;
22320;SDS011;11328;53.928;18.522;2023-11-21T05:51:48;14.30;;;6.63;;
22320;SDS011;11328;53.928;18.522;2023-11-21T05:54:15;13.55;;;6.57;;
22320;SDS011;11328;53.928;18.522;2023-11-21T05:56:43;14.95;;;6.57;;
22320;SDS011;11328;53.928;18.522;2023-11-21T05:59:10;14.68;;;6.78;;
22320;SDS011;11328;53.928;18.522;2023-11-21T06:01:37;12.95;;;6.72;;
22320;SDS011;11328;53.928;18.522;2023-11-21T06:04:05;12.23;;;6.47;;
22320;SDS011;11328;53.928;18.522;2023-11-21T06:06:35;16.88;;;7.13;;
22320;SDS011;11328;53.928;18.522;2023-11-21T06:09:02;13.35;;;6.97;;
22320;SDS011;11328;53.928;18.522;2023-11-21T06:11:29;17.05;;;8.23;;
22320;SDS011;11328;53.928;18.522;2023-11-21T06:13:56;14.77;;;7.43;;
22320;SDS011;11328;53.928;18.522;2023-11-21T06:16:24;16.65;;;8.32;;
22320;SDS011;11328;53.928;18.522;2023-11-21T06:18:51;18.38;;;8.43;;
22320;SDS011;11328;53.928;18.522;2023-11-21T06:21:18;16.35;;;8.20;;
22320;SDS011;11328;53.928;18.522;2023-11-21T06:23:45;13.10;;;6.63;;
22320;SDS011;11328;53.928;18.522;2023-11-21T06:26:12;15.65;;;7.13;;
22320;SDS011;11328;53.928;18.522;2023-11-21T06:28:40;13.27;;;6.47;;
22320;SDS011;11328;53.928;18.522;2023-11-21T06:31:07;13.15;;;6.57;;
22320;SDS011;11328;53.928;18.522;2023-11-21T06:33:34;12.90;;;6.53;;
22320;SDS011;11328;53.928;18.522;2023-11-21T06:36:01;10.65;;;6.00;;
22320;SDS011;11328;53.928;18.522;2023-11-21T06:38:29;11.35;;;6.38;;
22320;SDS011;11328;53.928;18.522;2023-11-21T06:40:58;11.18;;;6.35;;
22320;SDS011;11328;53.928;18.522;2023-11-21T06:43:28;14.48;;;6.75;;
22320;SDS011;11328;53.928;18.522;2023-11-21T06:45:57;13.43;;;7.32;;
22320;SDS011;11328;53.928;18.522;2023-11-21T06:48:25;13.45;;;6.93;;
22320;SDS011;11328;53.928;18.522;2023-11-21T06:50:52;14.68;;;7.00;;
22320;SDS011;11328;53.928;18.522;2023-11-21T06:53:19;12.07;;;6.55;;
22320;SDS011;11328;53.928;18.522;2023-11-21T06:55:46;13.75;;;6.28;;
22320;SDS011;11328;53.928;18.522;2023-11-21T06:58:13;10.02;;;5.63;;
22320;SDS011;11328;53.928;18.522;2023-11-21T07:00:41;10.77;;;5.88;;
22320;SDS011;11328;53.928;18.522;2023-11-21T07:03:12;12.65;;;5.85;;
22320;SDS011;11328;53.928;18.522;2023-11-21T07:05:40;13.93;;;6.53;;
22320;SDS011;11328;53.928;18.522;2023-11-21T07:08:07;13.82;;;6.53;;
22320;SDS011;11328;53.928;18.522;2023-11-21T07:10:35;13.27;;;6.88;;
22320;SDS011;11328;53.928;18.522;2023-11-21T07:13:03;12.90;;;6.28;;
22320;SDS011;11328;53.928;18.522;2023-11-21T07:15:30;12.27;;;6.50;;
22320;SDS011;11328;53.928;18.522;2023-11-21T07:17:57;13.75;;;6.80;;
22320;SDS011;11328;53.928;18.522;2023-11-21T07:20:24;13.27;;;6.90;;
22320;SDS011;11328;53.928;18.522;2023-11-21T07:22:51;14.45;;;7.00;;
22320;SDS011;11328;53.928;18.522;2023-11-21T07:25:18;14.15;;;7.15;;
22320;SDS011;11328;53.928;18.522;2023-11-21T07:27:45;13.52;;;6.70;;
22320;SDS011;11328;53.928;18.522;2023-11-21T07:30:13;14.65;;;7.28;;
22320;SDS011;11328;53.928;18.522;2023-11-21T07:32:40;15.43;;;7.30;;
22320;SDS011;11328;53.928;18.522;2023-11-21T07:35:07;13.50;;;6.90;;
22320;SDS011;11328;53.928;18.522;2023-11-21T07:37:35;13.30;;;7.05;;
22320;SDS011;11328;53.928;18.522;2023-11-21T07:40:02;14.25;;;7.05;;
22320;SDS011;11328;53.928;18.522;2023-11-21T07:42:29;13.52;;;7.15;;
22320;SDS011;11328;53.928;18.522;2023-11-21T07:44:57;11.52;;;6.18;;
22320;SDS011;11328;53.928;18.522;2023-11-21T07:47:23;15.85;;;6.47;;
22320;SDS011;11328;53.928;18.522;2023-11-21T07:49:53;14.13;;;6.97;;
22320;SDS011;11328;53.928;18.522;2023-11-21T07:52:22;12.25;;;6.70;;
22320;SDS011;11328;53.928;18.522;2023-11-21T07:54:50;12.70;;;6.60;;
22320;SDS011;11328;53.928;18.522;2023-11-21T07:57:17;12.80;;;6.65;;
22320;SDS011;11328;53.928;18.522;2023-11-21T07:59:44;14.07;;;6.60;;
22320;SDS011;11328;53.928;18.522;2023-11-21T08:02:11;14.32;;;7.28;;
22320;SDS011;11328;53.928;18.522;2023-11-21T08:04:38;15.60;;;7.30;;
22320;SDS011;11328;53.928;18.522;2023-11-21T08:07:05;15.43;;;6.57;;
22320;SDS011;11328;53.928;18.522;2023-11-21T08:09:32;14.18;;;6.60;;
22320;SDS011;11328;53.928;18.522;2023-11-21T08:12:00;13.13;;;6.95;;
22320;SDS011;11328;53.928;18.522;2023-11-21T08:14:29;13.32;;;6.63;;
22320;SDS011;11328;53.928;18.522;2023-11-21T08:16:56;12.20;;;6.93;;
22320;SDS011;11328;53.928;18.522;2023-11-21T08:19:25;14.73;;;7.15;;
22320;SDS011;11328;53.928;18.522;2023-11-21T08:21:53;12.88;;;6.95;;
22320;SDS011;11328;53.928;18.522;2023-11-21T08:24:21;12.98;;;7.22;;
22320;SDS011;11328;53.928;18.522;2023-11-21T08:26:48;13.82;;;6.55;;
22320;SDS011;11328;53.928;18.522;2023-11-21T08:29:16;14.98;;;7.22;;
22320;SDS011;11328;53.928;18.522;2023-11-21T08:31:43;13.15;;;7.20;;
22320;SDS011;11328;53.928;18.522;2023-11-21T08:34:13;15.40;;;7.78;;
22320;SDS011;11328;53.928;18.522;2023-11-21T08:36:44;12.68;;;7.28;;
22320;SDS011;11328;53.928;18.522;2023-11-21T08:39:12;14.60;;;7.65;;
22320;SDS011;11328;53.928;18.522;2023-11-21T08:41:39;15.60;;;7.28;;
22320;SDS011;11328;53.928;18.522;2023-11-21T08:44:07;13.18;;;6.97;;
22320;SDS011;11328;53.928;18.522;2023-11-21T08:46:34;13.48;;;6.93;;
22320;SDS011;11328;53.928;18.522;2023-11-21T08:49:04;15.15;;;6.30;;
22320;SDS011;11328;53.928;18.522;2023-11-21T08:51:32;12.60;;;6.07;;
22320;SDS011;11328;53.928;18.522;2023-11-21T08:53:59;13.55;;;6.93;;
22320;SDS011;11328;53.928;18.522;2023-11-21T08:56:30;11.65;;;6.40;;
22320;SDS011;11328;53.928;18.522;2023-11-21T08:58:57;11.98;;;6.68;;
22320;SDS011;11328;53.928;18.522;2023-11-21T09:01:26;12.68;;;6.75;;
22320;SDS011;11328;53.928;18.522;2023-11-21T09:03:54;12.05;;;6.35;;
22320;SDS011;11328;53.928;18.522;2023-11-21T09:06:21;12.07;;;6.47;;
22320;SDS011;11328;53.928;18.522;2023-11-21T09:08:48;12.65;;;6.70;;
22320;SDS011;11328;53.928;18.522;2023-11-21T09:11:15;13.43;;;6.50;;
22320;SDS011;11328;53.928;18.522;2023-11-21T09:13:45;11.88;;;5.97;;
22320;SDS011;11328;53.928;18.522;2023-11-21T09:16:13;11.88;;;5.90;;
22320;SDS011;11328;53.928;18.522;2023-11-21T09:18:42;14.02;;;6.00;;
22320;SDS011;11328;53.928;18.522;2023-11-21T09:21:09;11.52;;;5.97;;
22320;SDS011;11328;53.928;18.522;2023-11-21T09:23:36;10.57;;;5.53;;
22320;SDS011;11328;53.928;18.522;2023-11-21T09:26:03;11.20;;;5.53;;
22320;SDS011;11328;53.928;18.522;2023-11-21T09:28:31;11.20;;;5.82;;
22320;SDS011;11328;53.928;18.522;2023-11-21T09:30:58;11.52;;;5.65;;
22320;SDS011;11328;53.928;18.522;2023-11-21T09:33:25;12.02;;;5.53;;
22320;SDS011;11328;53.928;18.522;2023-11-21T09:35:52;15.02;;;5.85;;
22320;SDS011;11328;53.928;18.522;2023-11-21T09:38:20;11.90;;;5.65;;
22320;SDS011;11328;53.928;18.522;2023-11-21T09:40:47;11.65;;;5.78;;
22320;SDS011;11328;53.928;18.522;2023-11-21T09:43:16;11.48;;;5.45;;
22320;SDS011;11328;53.928;18.522;2023-11-21T09:45:48;10.60;;;6.07;;
22320;SDS011;11328;53.928;18.522;2023-11-21T09:48:26;14.07;;;6.60;;
22320;SDS011;11328;53.928;18.522;2023-11-21T12:49:46;7.57;;;3.53;;
22320;SDS011;11328;53.928;18.522;2023-11-21T12:52:14;6.28;;;3.00;;
22320;SDS011;11328;53.928;18.522;2023-11-21T12:54:42;6.57;;;3.03;;
22320;SDS011;11328;53.928;18.522;2023-11-21T12:57:10;7.38;;;3.70;;
22320;SDS011;11328;53.928;18.522;2023-11-21T12:59:38;11.90;;;5.20;;
22320;SDS011;11328;53.928;18.522;2023-11-21T13:02:05;22.02;;;6.90;;
22320;SDS011;11328;53.928;18.522;2023-11-21T13:04:32;9.63;;;3.88;;
22320;SDS011;11328;53.928;18.522;2023-11-21T13:07:04;6.72;;;3.13;;
22320;SDS011;11328;53.928;18.522;2023-11-21T13:09:40;12.52;;;4.00;;
22320;SDS011;11328;53.928;18.522;2023-11-21T13:12:08;16.38;;;5.10;;
22320;SDS011;11328;53.928;18.522;2023-11-21T13:14:36;8.30;;;3.65;;
22320;SDS011;11328;53.928;18.522;2023-11-21T13:17:03;10.35;;;3.75;;
22320;SDS011;11328;53.928;18.522;2023-11-21T13:19:31;10.05;;;3.80;;
22320;SDS011;11328;53.928;18.522;2023-11-21T13:21:58;10.88;;;4.55;;
22320;SDS011;11328;53.928;18.522;2023-11-21T13:24:28;8.98;;;3.70;;
22320;SDS011;11328;53.928;18.522;2023-11-21T13:26:55;10.65;;;4.25;;
22320;SDS011;11328;53.928;18.522;2023-11-21T13:29:22;8.23;;;3.50;;
22320;SDS011;11328;53.928;18.522;2023-11-21T13:31:49;9.13;;;3.60;;
22320;SDS011;11328;53.928;18.522;2023-11-21T13:34:17;11.23;;;4.30;;
22320;SDS011;11328;53.928;18.522;2023-11-21T13:36:49;11.73;;;4.30;;
22320;SDS011;11328;53.928;18.522;2023-11-21T13:41:49;9.52;;;4.45;;
22320;SDS011;11328;53.928;18.522;2023-11-21T13:44:21;14.05;;;5.57;;
22320;SDS011;11328;53.928;18.522;2023-11-21T13:47:00;18.13;;;6.53;;
22320;SDS011;11328;53.928;18.522;2023-11-21T13:49:27;13.05;;;5.30;;
22320;SDS011;11328;53.928;18.522;2023-11-21T13:51:58;14.73;;;6.57;;
22320;SDS011;11328;53.928;18.522;2023-11-21T13:54:26;14.60;;;5.95;;
22320;SDS011;11328;53.928;18.522;2023-11-21T13:56:53;13.85;;;5.43;;
22320;SDS011;11328;53.928;18.522;2023-11-21T13:59:21;15.00;;;5.15;;
22320;SDS011;11328;53.928;18.522;2023-11-21T14:01:58;15.25;;;5.75;;
22320;SDS011;11328;53.928;18.522;2023-11-21T14:04:27;14.35;;;4.90;;
22320;SDS011;11328;53.928;18.522;2023-11-21T14:06:57;12.10;;;4.50;;
22320;SDS011;11328;53.928;18.522;2023-11-21T14:09:27;9.68;;;4.50;;
22320;SDS011;11328;53.928;18.522;2023-11-21T14:12:09;11.35;;;4.50;;
22320;SDS011;11328;53.928;18.522;2023-11-21T14:14:38;13.07;;;5.30;;
22320;SDS011;11328;53.928;18.522;2023-11-21T14:17:05;14.55;;;5.57;;
22320;SDS011;11328;53.928;18.522;2023-11-21T14:19:33;15.85;;;6.18;;
22320;SDS011;11328;53.928;18.522;2023-11-21T14:22:05;15.82;;;6.65;;
22320;SDS011;11328;53.928;18.522;2023-11-21T14:24:36;16.98;;;7.40;;
22320;SDS011;11328;53.928;18.522;2023-11-21T14:27:04;20.02;;;7.88;;
22320;SDS011;11328;53.928;18.522;2023-11-21T14:29:31;14.85;;;7.10;;
22320;SDS011;11328;53.928;18.522;2023-11-21T14:32:04;23.88;;;8.32;;
22320;SDS011;11328;53.928;18.522;2023-11-21T14:34:32;13.18;;;5.57;;
22320;SDS011;11328;53.928;18.522;2023-11-21T14:36:59;16.88;;;5.75;;
22320;SDS011;11328;53.928;18.522;2023-11-21T14:43:39;13.45;;;5.72;;
22320;SDS011;11328;53.928;18.522;2023-11-21T14:46:06;10.40;;;4.70;;
22320;SDS011;11328;53.928;18.522;2023-11-21T14:48:36;10.70;;;4.80;;
22320;SDS011;11328;53.928;18.522;2023-11-21T14:51:09;10.98;;;4.88;;
22320;SDS011;11328;53.928;18.522;2023-11-21T14:53:49;9.68;;;4.43;;
22320;SDS011;11328;53.928;18.522;2023-11-21T14:56:28;10.88;;;5.30;;
22320;SDS011;11328;53.928;18.522;2023-11-21T14:58:58;12.45;;;5.32;;
22320;SDS011;11328;53.928;18.522;2023-11-21T15:01:33;10.43;;;5.18;;
22320;SDS011;11328;53.928;18.522;2023-11-21T15:04:10;10.85;;;5.53;;
22320;SDS011;11328;53.928;18.522;2023-11-21T15:06:56;13.65;;;5.90;;
22320;SDS011;11328;53.928;18.522;2023-11-21T15:09:25;11.63;;;5.38;;
22320;SDS011;11328;53.928;18.522;2023-11-21T15:14:37;13.30;;;6.32;;
22320;SDS011;11328;53.928;18.522;2023-11-21T15:17:04;13.45;;;6.25;;
22320;SDS011;11328;53.928;18.522;2023-11-21T15:19:32;12.00;;;5.93;;
22320;SDS011;11328;53.928;18.522;2023-11-21T15:22:02;17.33;;;8.68;;
22320;SDS011;11328;53.928;18.522;2023-11-21T15:24:29;13.23;;;6.82;;
22320;SDS011;11328;53.928;18.522;2023-11-21T15:26:56;12.05;;;6.60;;
22320;SDS011;11328;53.928;18.522;2023-11-21T15:29:23;13.05;;;6.05;;
22320;SDS011;11328;53.928;18.522;2023-11-21T15:31:52;14.15;;;6.40;;
22320;SDS011;11328;53.928;18.522;2023-11-21T15:34:22;14.13;;;6.88;;
22320;SDS011;11328;53.928;18.522;2023-11-21T15:36:49;11.65;;;6.53;;
22320;SDS011;11328;53.928;18.522;2023-11-21T15:39:19;11.98;;;5.93;;
22320;SDS011;11328;53.928;18.522;2023-11-21T15:41:54;15.60;;;7.78;;
22320;SDS011;11328;53.928;18.522;2023-11-21T15:44:25;12.50;;;7.03;;
22320;SDS011;11328;53.928;18.522;2023-11-21T15:46:53;17.50;;;10.60;;
22320;SDS011;11328;53.928;18.522;2023-11-21T15:49:21;30.80;;;16.95;;
22320;SDS011;11328;53.928;18.522;2023-11-21T15:51:50;38.65;;;21.45;;
22320;SDS011;11328;53.928;18.522;2023-11-21T15:54:22;35.38;;;15.75;;
22320;SDS011;11328;53.928;18.522;2023-11-21T15:56:51;29.90;;;11.30;;
22320;SDS011;11328;53.928;18.522;2023-11-21T15:59:23;25.75;;;9.65;;
22320;SDS011;11328;53.928;18.522;2023-11-21T16:01:56;50.45;;;17.33;;
22320;SDS011;11328;53.928;18.522;2023-11-21T16:04:23;24.42;;;9.20;;
22320;SDS011;11328;53.928;18.522;2023-11-21T16:06:53;31.30;;;10.70;;
22320;SDS011;11328;53.928;18.522;2023-11-21T16:09:20;45.20;;;14.75;;
22320;SDS011;11328;53.928;18.522;2023-11-21T16:11:50;13.50;;;5.80;;
22320;SDS011;11328;53.928;18.522;2023-11-21T16:14:25;17.63;;;6.20;;
22320;SDS011;11328;53.928;18.522;2023-11-21T16:16:55;15.02;;;6.47;;
22320;SDS011;11328;53.928;18.522;2023-11-21T16:19:24;21.33;;;7.50;;
22320;SDS011;11328;53.928;18.522;2023-11-21T16:21:51;13.60;;;5.88;;
22320;SDS011;11328;53.928;18.522;2023-11-21T16:24:19;24.27;;;8.40;;
22320;SDS011;11328;53.928;18.522;2023-11-21T16:26:47;38.25;;;11.60;;
22320;SDS011;11328;53.928;18.522;2023-11-21T16:29:14;35.28;;;10.73;;
22320;SDS011;11328;53.928;18.522;2023-11-21T16:31:43;25.13;;;9.65;;
22320;SDS011;11328;53.928;18.522;2023-11-21T16:34:13;24.27;;;9.75;;
22320;SDS011;11328;53.928;18.522;2023-11-21T16:36:47;34.58;;;11.05;;
22320;SDS011;11328;53.928;18.522;2023-11-21T16:39:18;22.52;;;8.43;;
22320;SDS011;11328;53.928;18.522;2023-11-21T16:41:48;18.70;;;8.30;;
22320;SDS011;11328;53.928;18.522;2023-11-21T16:44:15;22.95;;;9.60;;
22320;SDS011;11328;53.928;18.522;2023-11-21T16:46:48;17.15;;;7.20;;
22320;SDS011;11328;53.928;18.522;2023-11-21T16:51:47;15.90;;;6.68;;
22320;SDS011;11328;53.928;18.522;2023-11-21T16:54:14;12.70;;;5.72;;
22320;SDS011;11328;53.928;18.522;2023-11-21T16:56:42;11.77;;;5.75;;
22320;SDS011;11328;53.928;18.522;2023-11-21T16:59:13;14.95;;;6.38;;
22320;SDS011;11328;53.928;18.522;2023-11-21T17:01:41;13.30;;;5.90;;
22320;SDS011;11328;53.928;18.522;2023-11-21T17:04:14;12.30;;;5.93;;
22320;SDS011;11328;53.928;18.522;2023-11-21T17:06:42;12.93;;;5.72;;
22320;SDS011;11328;53.928;18.522;2023-11-21T17:09:10;10.07;;;5.28;;
22320;SDS011;11328;53.928;18.522;2023-11-21T17:11:40;11.95;;;5.45;;
22320;SDS011;11328;53.928;18.522;2023-11-21T17:14:08;10.07;;;5.30;;
22320;SDS011;11328;53.928;18.522;2023-11-21T17:16:36;11.63;;;5.47;;
22320;SDS011;11328;53.928;18.522;2023-11-21T17:19:08;11.73;;;5.60;;
22320;SDS011;11328;53.928;18.522;2023-11-21T17:21:35;14.60;;;6.20;;
22320;SDS011;11328;53.928;18.522;2023-11-21T17:24:02;11.85;;;5.28;;
22320;SDS011;11328;53.928;18.522;2023-11-21T17:26:31;11.70;;;5.50;;
22320;SDS011;11328;53.928;18.522;2023-11-21T17:28:58;14.98;;;5.30;;
22320;SDS011;11328;53.928;18.522;2023-11-21T17:31:25;12.57;;;5.30;;
22320;SDS011;11328;53.928;18.522;2023-11-21T17:33:54;13.00;;;5.88;;
22320;SDS011;11328;53.928;18.522;2023-11-21T17:36:21;11.75;;;5.47;;
22320;SDS011;11328;53.928;18.522;2023-11-21T17:38:49;12.02;;;6.07;;